<?xml version='1.0' encoding='UTF-8'?><gpx version="1.1" creator="JPX - https://github.com/jenetics/jpx" xmlns="http://www.topografix.com/GPX/1/1"><trk><trkseg><trkpt lat="41.8103833" lon="12.68147"><ele>303.0</ele><time>2026-05-03T06:42:48.451Z</time></trkpt><trkpt lat="41.8103017" lon="12.6814517"><ele>303.0</ele><time>2026-05-03T06:42:56.452Z</time></trkpt><trkpt lat="41.8101967" lon="12.6814017"><ele>303.0</ele><time>2026-05-03T06:43:04.451Z</time></trkpt><trkpt lat="41.8101233" lon="12.6814133"><ele>303.0</ele><time>2026-05-03T06:43:08.452Z</time></trkpt><trkpt lat="41.8100583" lon="12.6813683"><ele>303.0</ele><time>2026-05-03T06:43:12.452Z</time></trkpt><trkpt lat="41.809995" lon="12.68134"><ele>303.0</ele><time>2026-05-03T06:43:19.451Z</time></trkpt><trkpt lat="41.80993" lon="12.6812967"><ele>306.3333333333333</ele><time>2026-05-03T06:43:25.451Z</time></trkpt><trkpt lat="41.8099533" lon="12.6811933"><ele>309.6666666666667</ele><time>2026-05-03T06:43:28.451Z</time></trkpt><trkpt lat="41.8099833" lon="12.681105"><ele>313.0</ele><time>2026-05-03T06:43:32.451Z</time></trkpt><trkpt lat="41.810005" lon="12.6809817"><ele>316.33333333333337</ele><time>2026-05-03T06:43:53.452Z</time></trkpt><trkpt lat="41.8100167" lon="12.680895"><ele>319.6666666666667</ele><time>2026-05-03T06:43:58.451Z</time></trkpt><trkpt lat="41.81006" lon="12.68081"><ele>323.0</ele><time>2026-05-03T06:44:21.451Z</time></trkpt><trkpt lat="41.8100739" lon="12.6807146"><ele>323.1666666666667</ele><time>2026-05-03T06:44:32.483Z</time></trkpt><trkpt lat="41.8100945" lon="12.6806162"><ele>323.33333333333337</ele><time>2026-05-03T06:44:35.422Z</time></trkpt><trkpt lat="41.8101342" lon="12.680524"><ele>323.5</ele><time>2026-05-03T06:44:37.766Z</time></trkpt><trkpt lat="41.8101633" lon="12.680443"><ele>323.6666666666667</ele><time>2026-05-03T06:44:40.462Z</time></trkpt><trkpt lat="41.8102757" lon="12.680371"><ele>323.8333333333333</ele><time>2026-05-03T06:44:43.587Z</time></trkpt><trkpt lat="41.8103397" lon="12.680304"><ele>324.0</ele><time>2026-05-03T06:44:45.584Z</time></trkpt><trkpt lat="41.810368" lon="12.6802101"><ele>321.2857142857143</ele><time>2026-05-03T06:44:48.535Z</time></trkpt><trkpt lat="41.8103998" lon="12.6801223"><ele>318.57142857142856</ele><time>2026-05-03T06:44:51.511Z</time></trkpt><trkpt lat="41.8104212" lon="12.6800333"><ele>315.8571428571429</ele><time>2026-05-03T06:44:54.562Z</time></trkpt><trkpt lat="41.810426" lon="12.679947"><ele>313.1428571428571</ele><time>2026-05-03T06:44:57.571Z</time></trkpt><trkpt lat="41.8104662" lon="12.6798476"><ele>310.4285714285714</ele><time>2026-05-03T06:45:01.545Z</time></trkpt><trkpt lat="41.8104544" lon="12.6797464"><ele>307.7142857142857</ele><time>2026-05-03T06:45:05.424Z</time></trkpt><trkpt lat="41.8104077" lon="12.6796762"><ele>305.0</ele><time>2026-05-03T06:45:10.103Z</time></trkpt><trkpt lat="41.8103468" lon="12.679616"><ele>305.0</ele><time>2026-05-03T06:45:13.484Z</time></trkpt><trkpt lat="41.8102981" lon="12.6795393"><ele>305.0</ele><time>2026-05-03T06:45:16.523Z</time></trkpt><trkpt lat="41.8102546" lon="12.6794628"><ele>305.0</ele><time>2026-05-03T06:45:19.469Z</time></trkpt><trkpt lat="41.8102099" lon="12.6793941"><ele>305.0</ele><time>2026-05-03T06:45:22.552Z</time></trkpt><trkpt lat="41.8101777" lon="12.6793004"><ele>305.0</ele><time>2026-05-03T06:45:25.484Z</time></trkpt><trkpt lat="41.8101706" lon="12.6792084"><ele>305.0</ele><time>2026-05-03T06:45:28.502Z</time></trkpt><trkpt lat="41.8101652" lon="12.6791126"><ele>305.0</ele><time>2026-05-03T06:45:31.569Z</time></trkpt><trkpt lat="41.8101483" lon="12.6790286"><ele>307.14285714285717</ele><time>2026-05-03T06:45:34.566Z</time></trkpt><trkpt lat="41.8101078" lon="12.6789626"><ele>309.2857142857143</ele><time>2026-05-03T06:45:37.422Z</time></trkpt><trkpt lat="41.8100527" lon="12.6789091"><ele>311.42857142857144</ele><time>2026-05-03T06:45:40.487Z</time></trkpt><trkpt lat="41.8099843" lon="12.6788939"><ele>313.57142857142856</ele><time>2026-05-03T06:45:43.565Z</time></trkpt><trkpt lat="41.8099003" lon="12.6788957"><ele>315.7142857142857</ele><time>2026-05-03T06:45:46.471Z</time></trkpt><trkpt lat="41.8098441" lon="12.6789424"><ele>317.85714285714283</ele><time>2026-05-03T06:45:48.491Z</time></trkpt><trkpt lat="41.8097787" lon="12.6789547"><ele>320.0</ele><time>2026-05-03T06:45:50.542Z</time></trkpt><trkpt lat="41.8097041" lon="12.6789437"><ele>320.0</ele><time>2026-05-03T06:45:53.488Z</time></trkpt><trkpt lat="41.8096365" lon="12.6789164"><ele>320.0</ele><time>2026-05-03T06:45:56.464Z</time></trkpt><trkpt lat="41.8095792" lon="12.6788575"><ele>320.0</ele><time>2026-05-03T06:45:59.547Z</time></trkpt><trkpt lat="41.8095285" lon="12.6787972"><ele>320.0</ele><time>2026-05-03T06:46:02.424Z</time></trkpt><trkpt lat="41.8094902" lon="12.678728"><ele>320.0</ele><time>2026-05-03T06:46:06.458Z</time></trkpt><trkpt lat="41.8094403" lon="12.6786538"><ele>320.0</ele><time>2026-05-03T06:46:10.446Z</time></trkpt><trkpt lat="41.8093743" lon="12.6785869"><ele>320.0</ele><time>2026-05-03T06:46:14.537Z</time></trkpt><trkpt lat="41.809315" lon="12.6785576"><ele>319.2857142857143</ele><time>2026-05-03T06:46:17.513Z</time></trkpt><trkpt lat="41.8092512" lon="12.6785343"><ele>318.57142857142856</ele><time>2026-05-03T06:46:21.553Z</time></trkpt><trkpt lat="41.8091752" lon="12.678535"><ele>317.8571428571429</ele><time>2026-05-03T06:46:27.506Z</time></trkpt><trkpt lat="41.809112" lon="12.678532"><ele>317.1428571428571</ele><time>2026-05-03T06:46:30.59Z</time></trkpt><trkpt lat="41.8090343" lon="12.678502"><ele>316.42857142857144</ele><time>2026-05-03T06:46:34.522Z</time></trkpt><trkpt lat="41.808973" lon="12.6784745"><ele>315.7142857142857</ele><time>2026-05-03T06:46:37.544Z</time></trkpt><trkpt lat="41.8088997" lon="12.6784337"><ele>315.0</ele><time>2026-05-03T06:46:41.367Z</time></trkpt><trkpt lat="41.8088182" lon="12.6784286"><ele>315.0</ele><time>2026-05-03T06:46:44.444Z</time></trkpt><trkpt lat="41.8087256" lon="12.6784421"><ele>315.0</ele><time>2026-05-03T06:46:47.523Z</time></trkpt><trkpt lat="41.80865" lon="12.6784135"><ele>315.0</ele><time>2026-05-03T06:46:50.469Z</time></trkpt><trkpt lat="41.8085823" lon="12.678367"><ele>315.0</ele><time>2026-05-03T06:46:53.451Z</time></trkpt><trkpt lat="41.8085142" lon="12.6783243"><ele>315.0</ele><time>2026-05-03T06:46:56.528Z</time></trkpt><trkpt lat="41.8084608" lon="12.6782625"><ele>315.0</ele><time>2026-05-03T06:46:59.505Z</time></trkpt><trkpt lat="41.8084091" lon="12.678204"><ele>315.42857142857144</ele><time>2026-05-03T06:47:02.425Z</time></trkpt><trkpt lat="41.8083871" lon="12.6781221"><ele>315.8571428571429</ele><time>2026-05-03T06:47:07.479Z</time></trkpt><trkpt lat="41.8083329" lon="12.6780606"><ele>316.2857142857143</ele><time>2026-05-03T06:47:17.471Z</time></trkpt><trkpt lat="41.8082778" lon="12.678003"><ele>316.7142857142857</ele><time>2026-05-03T06:47:21.504Z</time></trkpt><trkpt lat="41.8082171" lon="12.6779734"><ele>317.14285714285717</ele><time>2026-05-03T06:47:27.464Z</time></trkpt><trkpt lat="41.8081404" lon="12.6779281"><ele>317.57142857142856</ele><time>2026-05-03T06:47:33.462Z</time></trkpt><trkpt lat="41.8080721" lon="12.6778942"><ele>318.0</ele><time>2026-05-03T06:47:36.503Z</time></trkpt><trkpt lat="41.8080034" lon="12.6778697"><ele>316.8</ele><time>2026-05-03T06:47:39.477Z</time></trkpt><trkpt lat="41.8079103" lon="12.6776628"><ele>315.6</ele><time>2026-05-03T06:47:40.383Z</time></trkpt><trkpt lat="41.8078449" lon="12.6775238"><ele>314.4</ele><time>2026-05-03T06:47:41.498Z</time></trkpt><trkpt lat="41.8077848" lon="12.6774679"><ele>313.2</ele><time>2026-05-03T06:47:43.484Z</time></trkpt><trkpt lat="41.8077219" lon="12.6774993"><ele>312.0</ele><time>2026-05-03T06:47:50.534Z</time></trkpt><trkpt lat="41.8076464" lon="12.6775352"><ele>312.75</ele><time>2026-05-03T06:47:52.553Z</time></trkpt><trkpt lat="41.8075661" lon="12.6775716"><ele>313.5</ele><time>2026-05-03T06:47:55.53Z</time></trkpt><trkpt lat="41.8074985" lon="12.6776107"><ele>314.25</ele><time>2026-05-03T06:47:58.506Z</time></trkpt><trkpt lat="41.8074302" lon="12.6776545"><ele>315.0</ele><time>2026-05-03T06:48:01.486Z</time></trkpt><trkpt lat="41.8073855" lon="12.6781445"><ele>315.0</ele><time>2026-05-03T06:48:02.546Z</time></trkpt><trkpt lat="41.8073685" lon="12.6782702"><ele>315.0</ele><time>2026-05-03T06:48:03.503Z</time></trkpt><trkpt lat="41.8073176" lon="12.6783426"><ele>315.0</ele><time>2026-05-03T06:48:05.524Z</time></trkpt><trkpt lat="41.8072766" lon="12.6784207"><ele>315.0</ele><time>2026-05-03T06:48:08.5Z</time></trkpt><trkpt lat="41.8072389" lon="12.67849"><ele>315.0</ele><time>2026-05-03T06:48:11.463Z</time></trkpt><trkpt lat="41.8071659" lon="12.6785226"><ele>315.0</ele><time>2026-05-03T06:48:15.516Z</time></trkpt><trkpt lat="41.8071022" lon="12.6785639"><ele>316.3333333333333</ele><time>2026-05-03T06:48:19.447Z</time></trkpt><trkpt lat="41.80706" lon="12.67864"><ele>317.6666666666667</ele><time>2026-05-03T06:48:22.533Z</time></trkpt><trkpt lat="41.8070131" lon="12.6786978"><ele>319.0</ele><time>2026-05-03T06:48:25.585Z</time></trkpt><trkpt lat="41.8069339" lon="12.6786724"><ele>320.33333333333337</ele><time>2026-05-03T06:48:29.004Z</time></trkpt><trkpt lat="41.8068628" lon="12.6786961"><ele>321.6666666666667</ele><time>2026-05-03T06:48:32.465Z</time></trkpt><trkpt lat="41.806781" lon="12.6787452"><ele>323.0</ele><time>2026-05-03T06:48:36.562Z</time></trkpt><trkpt lat="41.8067409" lon="12.6788287"><ele>323.00000000000006</ele><time>2026-05-03T06:48:39.452Z</time></trkpt><trkpt lat="41.8066828" lon="12.678889"><ele>323.0</ele><time>2026-05-03T06:48:43.425Z</time></trkpt><trkpt lat="41.8066192" lon="12.6789014"><ele>323.0</ele><time>2026-05-03T06:48:49.546Z</time></trkpt><trkpt lat="41.8065519" lon="12.6788546"><ele>323.0</ele><time>2026-05-03T06:48:55.489Z</time></trkpt><trkpt lat="41.8064901" lon="12.6788178"><ele>323.0</ele><time>2026-05-03T06:48:59.463Z</time></trkpt><trkpt lat="41.8064336" lon="12.6787655"><ele>323.00000000000006</ele><time>2026-05-03T06:49:01.385Z</time></trkpt><trkpt lat="41.8063821" lon="12.6786714"><ele>323.0</ele><time>2026-05-03T06:49:03.569Z</time></trkpt><trkpt lat="41.8063133" lon="12.6786542"><ele>323.0</ele><time>2026-05-03T06:49:06.381Z</time></trkpt><trkpt lat="41.8062294" lon="12.6786458"><ele>323.0</ele><time>2026-05-03T06:49:09.445Z</time></trkpt><trkpt lat="41.8061452" lon="12.6787086"><ele>323.0</ele><time>2026-05-03T06:49:12.507Z</time></trkpt><trkpt lat="41.8060739" lon="12.6787252"><ele>323.0</ele><time>2026-05-03T06:49:15.584Z</time></trkpt><trkpt lat="41.8060041" lon="12.6786688"><ele>323.0</ele><time>2026-05-03T06:49:19.514Z</time></trkpt><trkpt lat="41.8059554" lon="12.6786133"><ele>323.0</ele><time>2026-05-03T06:49:22.444Z</time></trkpt><trkpt lat="41.8059132" lon="12.6785362"><ele>322.28571428571433</ele><time>2026-05-03T06:49:25.464Z</time></trkpt><trkpt lat="41.8058557" lon="12.6784679"><ele>321.57142857142856</ele><time>2026-05-03T06:49:29.508Z</time></trkpt><trkpt lat="41.8058195" lon="12.6783905"><ele>320.8571428571429</ele><time>2026-05-03T06:49:34.584Z</time></trkpt><trkpt lat="41.805759" lon="12.6783319"><ele>320.14285714285717</ele><time>2026-05-03T06:49:39.501Z</time></trkpt><trkpt lat="41.8056975" lon="12.6783091"><ele>319.42857142857144</ele><time>2026-05-03T06:49:42.477Z</time></trkpt><trkpt lat="41.8056307" lon="12.6782947"><ele>318.7142857142857</ele><time>2026-05-03T06:49:45.523Z</time></trkpt><trkpt lat="41.8055742" lon="12.6782297"><ele>318.0</ele><time>2026-05-03T06:49:48.538Z</time></trkpt><trkpt lat="41.8055182" lon="12.6781898"><ele>318.0</ele><time>2026-05-03T06:49:51.265Z</time></trkpt><trkpt lat="41.805438" lon="12.6782064"><ele>318.0</ele><time>2026-05-03T06:49:54.49Z</time></trkpt><trkpt lat="41.8054219" lon="12.6783104"><ele>318.0</ele><time>2026-05-03T06:49:58.464Z</time></trkpt><trkpt lat="41.8054644" lon="12.6784054"><ele>318.0</ele><time>2026-05-03T06:50:01.464Z</time></trkpt><trkpt lat="41.8055176" lon="12.6784994"><ele>318.0</ele><time>2026-05-03T06:50:04.447Z</time></trkpt><trkpt lat="41.8055784" lon="12.678573"><ele>318.0</ele><time>2026-05-03T06:50:07.424Z</time></trkpt><trkpt lat="41.8056323" lon="12.6786447"><ele>319.3333333333333</ele><time>2026-05-03T06:50:10.425Z</time></trkpt><trkpt lat="41.8056759" lon="12.6787446"><ele>320.6666666666667</ele><time>2026-05-03T06:50:13.519Z</time></trkpt><trkpt lat="41.805707" lon="12.6788399"><ele>322.0</ele><time>2026-05-03T06:50:16.496Z</time></trkpt><trkpt lat="41.8057147" lon="12.6789345"><ele>323.33333333333337</ele><time>2026-05-03T06:50:20.466Z</time></trkpt><trkpt lat="41.8057832" lon="12.6789897"><ele>324.6666666666667</ele><time>2026-05-03T06:50:24.469Z</time></trkpt><trkpt lat="41.8058415" lon="12.6790467"><ele>326.0</ele><time>2026-05-03T06:50:27.552Z</time></trkpt><trkpt lat="41.805881" lon="12.6791276"><ele>326.0</ele><time>2026-05-03T06:50:30.529Z</time></trkpt><trkpt lat="41.8059202" lon="12.6792003"><ele>326.0</ele><time>2026-05-03T06:50:33.507Z</time></trkpt><trkpt lat="41.8059454" lon="12.6792879"><ele>326.0</ele><time>2026-05-03T06:50:36.483Z</time></trkpt><trkpt lat="41.8059538" lon="12.6793986"><ele>326.0</ele><time>2026-05-03T06:50:40.504Z</time></trkpt><trkpt lat="41.8059593" lon="12.6795036"><ele>326.0</ele><time>2026-05-03T06:50:44.562Z</time></trkpt><trkpt lat="41.8058904" lon="12.6795225"><ele>326.0</ele><time>2026-05-03T06:50:48.444Z</time></trkpt><trkpt lat="41.8058393" lon="12.6794688"><ele>326.0</ele><time>2026-05-03T06:50:50.515Z</time></trkpt><trkpt lat="41.8057865" lon="12.6794191"><ele>326.0</ele><time>2026-05-03T06:50:52.535Z</time></trkpt><trkpt lat="41.8057115" lon="12.679346"><ele>326.0</ele><time>2026-05-03T06:50:55.513Z</time></trkpt><trkpt lat="41.8056298" lon="12.6792873"><ele>326.0</ele><time>2026-05-03T06:50:58.563Z</time></trkpt><trkpt lat="41.805561" lon="12.6792219"><ele>326.0</ele><time>2026-05-03T06:51:01.505Z</time></trkpt><trkpt lat="41.8055077" lon="12.6791577"><ele>326.0</ele><time>2026-05-03T06:51:04.502Z</time></trkpt><trkpt lat="41.8054705" lon="12.6790732"><ele>326.0</ele><time>2026-05-03T06:51:07.484Z</time></trkpt><trkpt lat="41.8054421" lon="12.6789737"><ele>326.0</ele><time>2026-05-03T06:51:10.542Z</time></trkpt><trkpt lat="41.8053963" lon="12.6788826"><ele>326.0</ele><time>2026-05-03T06:51:14.541Z</time></trkpt><trkpt lat="41.8053451" lon="12.678801"><ele>326.0</ele><time>2026-05-03T06:51:18.476Z</time></trkpt><trkpt lat="41.805294" lon="12.6787422"><ele>326.0</ele><time>2026-05-03T06:51:21.559Z</time></trkpt><trkpt lat="41.8052246" lon="12.6786942"><ele>326.0</ele><time>2026-05-03T06:51:25.446Z</time></trkpt><trkpt lat="41.8051576" lon="12.6786516"><ele>326.0</ele><time>2026-05-03T06:51:29.504Z</time></trkpt><trkpt lat="41.8051096" lon="12.6785585"><ele>326.33333333333337</ele><time>2026-05-03T06:51:33.563Z</time></trkpt><trkpt lat="41.8050593" lon="12.6784687"><ele>326.6666666666667</ele><time>2026-05-03T06:51:37.506Z</time></trkpt><trkpt lat="41.8050255" lon="12.6783903"><ele>327.0</ele><time>2026-05-03T06:51:40.481Z</time></trkpt><trkpt lat="41.8049931" lon="12.6783097"><ele>327.3333333333333</ele><time>2026-05-03T06:51:43.503Z</time></trkpt><trkpt lat="41.8049095" lon="12.6782656"><ele>327.66666666666663</ele><time>2026-05-03T06:51:46.485Z</time></trkpt><trkpt lat="41.8048407" lon="12.6781995"><ele>328.0</ele><time>2026-05-03T06:51:49.518Z</time></trkpt><trkpt lat="41.804795" lon="12.6781409"><ele>327.99999999999994</ele><time>2026-05-03T06:51:52.494Z</time></trkpt><trkpt lat="41.8047649" lon="12.6780666"><ele>328.0</ele><time>2026-05-03T06:51:55.471Z</time></trkpt><trkpt lat="41.8047387" lon="12.6779869"><ele>328.0</ele><time>2026-05-03T06:51:58.555Z</time></trkpt><trkpt lat="41.804709" lon="12.6779124"><ele>328.0</ele><time>2026-05-03T06:52:01.532Z</time></trkpt><trkpt lat="41.8046454" lon="12.6779183"><ele>328.0</ele><time>2026-05-03T06:52:05.571Z</time></trkpt><trkpt lat="41.8046639" lon="12.6780059"><ele>327.99999999999994</ele><time>2026-05-03T06:52:09.505Z</time></trkpt><trkpt lat="41.8047043" lon="12.6780708"><ele>328.0</ele><time>2026-05-03T06:52:12.481Z</time></trkpt><trkpt lat="41.8047454" lon="12.6781562"><ele>327.99999999999994</ele><time>2026-05-03T06:52:15.458Z</time></trkpt><trkpt lat="41.8047822" lon="12.6782523"><ele>328.0</ele><time>2026-05-03T06:52:18.541Z</time></trkpt><trkpt lat="41.8048262" lon="12.6783346"><ele>328.0</ele><time>2026-05-03T06:52:21.518Z</time></trkpt><trkpt lat="41.8048686" lon="12.6784105"><ele>328.0</ele><time>2026-05-03T06:52:24.471Z</time></trkpt><trkpt lat="41.8049121" lon="12.6784768"><ele>328.0</ele><time>2026-05-03T06:52:27.471Z</time></trkpt><trkpt lat="41.8049734" lon="12.6785343"><ele>327.99999999999994</ele><time>2026-05-03T06:52:30.488Z</time></trkpt><trkpt lat="41.8050225" lon="12.6786164"><ele>328.0</ele><time>2026-05-03T06:52:33.394Z</time></trkpt><trkpt lat="41.8050476" lon="12.6787122"><ele>327.71428571428567</ele><time>2026-05-03T06:52:36.508Z</time></trkpt><trkpt lat="41.805089" lon="12.6787917"><ele>327.42857142857144</ele><time>2026-05-03T06:52:39.484Z</time></trkpt><trkpt lat="41.8051418" lon="12.678856"><ele>327.1428571428571</ele><time>2026-05-03T06:52:42.461Z</time></trkpt><trkpt lat="41.8051847" lon="12.6789245"><ele>326.85714285714283</ele><time>2026-05-03T06:52:45.551Z</time></trkpt><trkpt lat="41.805242" lon="12.6789978"><ele>326.57142857142856</ele><time>2026-05-03T06:52:49.478Z</time></trkpt><trkpt lat="41.8052962" lon="12.6790473"><ele>326.2857142857143</ele><time>2026-05-03T06:52:52.518Z</time></trkpt><trkpt lat="41.8053582" lon="12.6791004"><ele>326.0</ele><time>2026-05-03T06:52:55.482Z</time></trkpt><trkpt lat="41.8054168" lon="12.6791691"><ele>326.0</ele><time>2026-05-03T06:52:58.515Z</time></trkpt><trkpt lat="41.8054623" lon="12.6792592"><ele>326.0</ele><time>2026-05-03T06:53:01.491Z</time></trkpt><trkpt lat="41.8054964" lon="12.6793537"><ele>326.0</ele><time>2026-05-03T06:53:04.678Z</time></trkpt><trkpt lat="41.8055362" lon="12.6794322"><ele>326.0</ele><time>2026-05-03T06:53:08.069Z</time></trkpt><trkpt lat="41.8055851" lon="12.6795098"><ele>326.0</ele><time>2026-05-03T06:53:11.388Z</time></trkpt><trkpt lat="41.805643" lon="12.6795679"><ele>326.0</ele><time>2026-05-03T06:53:14.648Z</time></trkpt><trkpt lat="41.8057155" lon="12.6795834"><ele>326.0</ele><time>2026-05-03T06:53:18.128Z</time></trkpt><trkpt lat="41.8057129" lon="12.6794948"><ele>326.0</ele><time>2026-05-03T06:53:21.478Z</time></trkpt><trkpt lat="41.8056993" lon="12.6793869"><ele>326.0</ele><time>2026-05-03T06:53:25.523Z</time></trkpt><trkpt lat="41.8056505" lon="12.6793105"><ele>326.0</ele><time>2026-05-03T06:53:28.494Z</time></trkpt><trkpt lat="41.8056123" lon="12.6792288"><ele>326.0</ele><time>2026-05-03T06:53:31.471Z</time></trkpt><trkpt lat="41.8055921" lon="12.6791446"><ele>326.0</ele><time>2026-05-03T06:53:35.511Z</time></trkpt><trkpt lat="41.8055562" lon="12.6790575"><ele>326.0</ele><time>2026-05-03T06:53:39.551Z</time></trkpt><trkpt lat="41.8054883" lon="12.67899"><ele>326.0</ele><time>2026-05-03T06:53:43.484Z</time></trkpt><trkpt lat="41.8054283" lon="12.6789509"><ele>326.0</ele><time>2026-05-03T06:53:46.461Z</time></trkpt><trkpt lat="41.8053669" lon="12.6789259"><ele>326.0</ele><time>2026-05-03T06:53:49.588Z</time></trkpt><trkpt lat="41.8053064" lon="12.678863"><ele>326.0</ele><time>2026-05-03T06:53:53.477Z</time></trkpt><trkpt lat="41.8052602" lon="12.6787835"><ele>326.0</ele><time>2026-05-03T06:53:56.552Z</time></trkpt><trkpt lat="41.8052032" lon="12.6787048"><ele>326.0</ele><time>2026-05-03T06:53:59.537Z</time></trkpt><trkpt lat="41.8051482" lon="12.6786087"><ele>326.33333333333337</ele><time>2026-05-03T06:54:02.515Z</time></trkpt><trkpt lat="41.8051001" lon="12.6785002"><ele>326.6666666666667</ele><time>2026-05-03T06:54:05.491Z</time></trkpt><trkpt lat="41.8050624" lon="12.6784236"><ele>327.0</ele><time>2026-05-03T06:54:07.59Z</time></trkpt><trkpt lat="41.8050073" lon="12.6783414"><ele>327.3333333333333</ele><time>2026-05-03T06:54:10.857Z</time></trkpt><trkpt lat="41.804956" lon="12.6782794"><ele>327.66666666666663</ele><time>2026-05-03T06:54:14.214Z</time></trkpt><trkpt lat="41.8049219" lon="12.6782"><ele>328.0</ele><time>2026-05-03T06:54:17.485Z</time></trkpt><trkpt lat="41.8048628" lon="12.6781171"><ele>327.99999999999994</ele><time>2026-05-03T06:54:21.512Z</time></trkpt><trkpt lat="41.8048179" lon="12.6780153"><ele>328.0</ele><time>2026-05-03T06:54:25.547Z</time></trkpt><trkpt lat="41.8047755" lon="12.6779429"><ele>328.0</ele><time>2026-05-03T06:54:28.491Z</time></trkpt><trkpt lat="41.8047187" lon="12.6778873"><ele>328.0</ele><time>2026-05-03T06:54:31.449Z</time></trkpt><trkpt lat="41.8046482" lon="12.6778939"><ele>328.0</ele><time>2026-05-03T06:54:34.514Z</time></trkpt><trkpt lat="41.8045859" lon="12.6779302"><ele>327.99999999999994</ele><time>2026-05-03T06:54:38.452Z</time></trkpt><trkpt lat="41.8045742" lon="12.6780298"><ele>328.0</ele><time>2026-05-03T06:54:42.489Z</time></trkpt><trkpt lat="41.8045921" lon="12.6781177"><ele>327.99999999999994</ele><time>2026-05-03T06:54:45.464Z</time></trkpt><trkpt lat="41.8046117" lon="12.6782057"><ele>328.0</ele><time>2026-05-03T06:54:48.452Z</time></trkpt><trkpt lat="41.8046525" lon="12.678282"><ele>328.0</ele><time>2026-05-03T06:54:51.525Z</time></trkpt><trkpt lat="41.8047025" lon="12.6783519"><ele>328.0</ele><time>2026-05-03T06:54:54.502Z</time></trkpt><trkpt lat="41.8047295" lon="12.678455"><ele>328.0</ele><time>2026-05-03T06:54:57.479Z</time></trkpt><trkpt lat="41.804783" lon="12.6785229"><ele>327.99999999999994</ele><time>2026-05-03T06:55:00.418Z</time></trkpt><trkpt lat="41.8048202" lon="12.678605"><ele>328.0</ele><time>2026-05-03T06:55:04.495Z</time></trkpt><trkpt lat="41.80483" lon="12.6786949"><ele>327.99999999999994</ele><time>2026-05-03T06:55:07.471Z</time></trkpt><trkpt lat="41.8047632" lon="12.6787142"><ele>328.0</ele><time>2026-05-03T06:55:11.458Z</time></trkpt><trkpt lat="41.8047025" lon="12.678644"><ele>328.0</ele><time>2026-05-03T06:55:14.488Z</time></trkpt><trkpt lat="41.8046362" lon="12.6785885"><ele>328.0</ele><time>2026-05-03T06:55:17.465Z</time></trkpt><trkpt lat="41.8045738" lon="12.6785393"><ele>328.0</ele><time>2026-05-03T06:55:20.549Z</time></trkpt><trkpt lat="41.8045289" lon="12.6784723"><ele>327.99999999999994</ele><time>2026-05-03T06:55:23.525Z</time></trkpt><trkpt lat="41.8045017" lon="12.678382"><ele>328.0</ele><time>2026-05-03T06:55:26.571Z</time></trkpt><trkpt lat="41.8044787" lon="12.6782806"><ele>328.0</ele><time>2026-05-03T06:55:29.902Z</time></trkpt><trkpt lat="41.8044325" lon="12.6782055"><ele>328.0</ele><time>2026-05-03T06:55:33.189Z</time></trkpt><trkpt lat="41.8043731" lon="12.6781525"><ele>328.0</ele><time>2026-05-03T06:55:36.493Z</time></trkpt><trkpt lat="41.8043104" lon="12.6781133"><ele>328.0</ele><time>2026-05-03T06:55:39.427Z</time></trkpt><trkpt lat="41.8042389" lon="12.6780693"><ele>328.0</ele><time>2026-05-03T06:55:42.452Z</time></trkpt><trkpt lat="41.8041626" lon="12.678062"><ele>328.0</ele><time>2026-05-03T06:55:45.531Z</time></trkpt><trkpt lat="41.8040898" lon="12.6781143"><ele>329.57142857142856</ele><time>2026-05-03T06:55:49.465Z</time></trkpt><trkpt lat="41.8040346" lon="12.678165"><ele>331.1428571428571</ele><time>2026-05-03T06:55:52.549Z</time></trkpt><trkpt lat="41.8039569" lon="12.6782362"><ele>332.71428571428567</ele><time>2026-05-03T06:55:55.525Z</time></trkpt><trkpt lat="41.8039137" lon="12.6783081"><ele>334.2857142857143</ele><time>2026-05-03T06:55:57.441Z</time></trkpt><trkpt lat="41.8038794" lon="12.678402"><ele>335.8571428571429</ele><time>2026-05-03T06:55:59.459Z</time></trkpt><trkpt lat="41.8038357" lon="12.6784857"><ele>337.4285714285714</ele><time>2026-05-03T06:56:01.48Z</time></trkpt><trkpt lat="41.8038102" lon="12.6785643"><ele>339.0</ele><time>2026-05-03T06:56:03.499Z</time></trkpt><trkpt lat="41.8037597" lon="12.6786371"><ele>339.0</ele><time>2026-05-03T06:56:06.476Z</time></trkpt><trkpt lat="41.8036877" lon="12.6786775"><ele>339.0</ele><time>2026-05-03T06:56:09.507Z</time></trkpt><trkpt lat="41.8036229" lon="12.6786898"><ele>339.0</ele><time>2026-05-03T06:56:12.426Z</time></trkpt><trkpt lat="41.8035762" lon="12.6786065"><ele>339.0</ele><time>2026-05-03T06:56:15.513Z</time></trkpt><trkpt lat="41.8035258" lon="12.6785332"><ele>339.0</ele><time>2026-05-03T06:56:18.49Z</time></trkpt><trkpt lat="41.8034576" lon="12.6784771"><ele>339.0</ele><time>2026-05-03T06:56:21.543Z</time></trkpt><trkpt lat="41.803398" lon="12.6783888"><ele>339.7142857142857</ele><time>2026-05-03T06:56:24.449Z</time></trkpt><trkpt lat="41.8033601" lon="12.6782827"><ele>340.42857142857144</ele><time>2026-05-03T06:56:27.526Z</time></trkpt><trkpt lat="41.8033286" lon="12.678176"><ele>341.14285714285717</ele><time>2026-05-03T06:56:30.502Z</time></trkpt><trkpt lat="41.8032864" lon="12.678108"><ele>341.8571428571429</ele><time>2026-05-03T06:56:33.498Z</time></trkpt><trkpt lat="41.8032307" lon="12.6780563"><ele>342.57142857142856</ele><time>2026-05-03T06:56:36.562Z</time></trkpt><trkpt lat="41.8031735" lon="12.678012"><ele>343.28571428571433</ele><time>2026-05-03T06:56:39.451Z</time></trkpt><trkpt lat="41.8031041" lon="12.6780219"><ele>344.0</ele><time>2026-05-03T06:56:43.472Z</time></trkpt><trkpt lat="41.8030259" lon="12.6779897"><ele>344.0</ele><time>2026-05-03T06:56:46.451Z</time></trkpt><trkpt lat="41.8029549" lon="12.6779901"><ele>344.0</ele><time>2026-05-03T06:56:49.451Z</time></trkpt><trkpt lat="41.8028956" lon="12.678058"><ele>344.0</ele><time>2026-05-03T06:56:52.529Z</time></trkpt><trkpt lat="41.8028413" lon="12.678155"><ele>344.0</ele><time>2026-05-03T06:56:55.488Z</time></trkpt><trkpt lat="41.8028354" lon="12.6782673"><ele>344.0</ele><time>2026-05-03T06:56:58.501Z</time></trkpt><trkpt lat="41.8028762" lon="12.6783722"><ele>344.0</ele><time>2026-05-03T06:57:01.451Z</time></trkpt><trkpt lat="41.8029076" lon="12.6784462"><ele>344.0</ele><time>2026-05-03T06:57:03.496Z</time></trkpt><trkpt lat="41.802958" lon="12.6785063"><ele>344.0</ele><time>2026-05-03T06:57:05.48Z</time></trkpt><trkpt lat="41.8030161" lon="12.6785601"><ele>344.0</ele><time>2026-05-03T06:57:07.5Z</time></trkpt><trkpt lat="41.8031625" lon="12.678634"><ele>344.0</ele><time>2026-05-03T06:57:10.422Z</time></trkpt><trkpt lat="41.8032503" lon="12.6787027"><ele>344.0</ele><time>2026-05-03T06:57:12.576Z</time></trkpt><trkpt lat="41.8032887" lon="12.6787784"><ele>344.1666666666667</ele><time>2026-05-03T06:57:14.749Z</time></trkpt><trkpt lat="41.8033406" lon="12.6788687"><ele>344.33333333333337</ele><time>2026-05-03T06:57:18.061Z</time></trkpt><trkpt lat="41.8033832" lon="12.6789651"><ele>344.5</ele><time>2026-05-03T06:57:21.534Z</time></trkpt><trkpt lat="41.8034258" lon="12.6790433"><ele>344.6666666666667</ele><time>2026-05-03T06:57:24.57Z</time></trkpt><trkpt lat="41.8034891" lon="12.6791072"><ele>344.8333333333333</ele><time>2026-05-03T06:57:27.867Z</time></trkpt><trkpt lat="41.803544" lon="12.6791788"><ele>345.0</ele><time>2026-05-03T06:57:31.101Z</time></trkpt><trkpt lat="41.8036077" lon="12.6792316"><ele>345.0</ele><time>2026-05-03T06:57:34.346Z</time></trkpt><trkpt lat="41.8036706" lon="12.6791985"><ele>345.0</ele><time>2026-05-03T06:57:37.48Z</time></trkpt><trkpt lat="41.8037491" lon="12.6791866"><ele>345.0</ele><time>2026-05-03T06:57:41.52Z</time></trkpt><trkpt lat="41.8038136" lon="12.67917"><ele>345.0</ele><time>2026-05-03T06:57:44.543Z</time></trkpt><trkpt lat="41.8038772" lon="12.6791082"><ele>345.0</ele><time>2026-05-03T06:57:47.492Z</time></trkpt><trkpt lat="41.8039388" lon="12.6790272"><ele>345.0</ele><time>2026-05-03T06:57:50.452Z</time></trkpt><trkpt lat="41.8040061" lon="12.6789637"><ele>345.0</ele><time>2026-05-03T06:57:53.392Z</time></trkpt><trkpt lat="41.8040468" lon="12.6788886"><ele>345.0</ele><time>2026-05-03T06:57:55.451Z</time></trkpt><trkpt lat="41.8040747" lon="12.678807"><ele>345.0</ele><time>2026-05-03T06:57:57.45Z</time></trkpt><trkpt lat="41.8041101" lon="12.6787353"><ele>345.0</ele><time>2026-05-03T06:57:59.487Z</time></trkpt><trkpt lat="41.8041451" lon="12.6786425"><ele>345.0</ele><time>2026-05-03T06:58:02.569Z</time></trkpt><trkpt lat="41.8041762" lon="12.678552"><ele>345.0</ele><time>2026-05-03T06:58:05.512Z</time></trkpt><trkpt lat="41.8042281" lon="12.6785017"><ele>345.0</ele><time>2026-05-03T06:58:08.391Z</time></trkpt><trkpt lat="41.8042903" lon="12.6784615"><ele>343.7142857142857</ele><time>2026-05-03T06:58:11.501Z</time></trkpt><trkpt lat="41.8043574" lon="12.6784571"><ele>342.42857142857144</ele><time>2026-05-03T06:58:15.464Z</time></trkpt><trkpt lat="41.8044262" lon="12.6784805"><ele>341.1428571428571</ele><time>2026-05-03T06:58:19.474Z</time></trkpt><trkpt lat="41.804487" lon="12.6785039"><ele>339.8571428571429</ele><time>2026-05-03T06:58:23.514Z</time></trkpt><trkpt lat="41.8045513" lon="12.6785313"><ele>338.57142857142856</ele><time>2026-05-03T06:58:26.49Z</time></trkpt><trkpt lat="41.8045828" lon="12.6786358"><ele>337.2857142857143</ele><time>2026-05-03T06:58:29.529Z</time></trkpt><trkpt lat="41.8045528" lon="12.6787158"><ele>336.0</ele><time>2026-05-03T06:58:31.372Z</time></trkpt><trkpt lat="41.8044933" lon="12.6787964"><ele>336.0</ele><time>2026-05-03T06:58:33.528Z</time></trkpt><trkpt lat="41.8044408" lon="12.6788794"><ele>336.0</ele><time>2026-05-03T06:58:36.452Z</time></trkpt><trkpt lat="41.8044004" lon="12.678953"><ele>336.0</ele><time>2026-05-03T06:58:37.534Z</time></trkpt><trkpt lat="41.8043699" lon="12.6790584"><ele>336.0</ele><time>2026-05-03T06:58:40.45Z</time></trkpt><trkpt lat="41.8043009" lon="12.6790766"><ele>336.0</ele><time>2026-05-03T06:58:42.544Z</time></trkpt><trkpt lat="41.8042381" lon="12.6790971"><ele>336.0</ele><time>2026-05-03T06:58:44.41Z</time></trkpt><trkpt lat="41.8041772" lon="12.6791729"><ele>337.2857142857143</ele><time>2026-05-03T06:58:47.452Z</time></trkpt><trkpt lat="41.8041128" lon="12.679229"><ele>338.57142857142856</ele><time>2026-05-03T06:58:50.551Z</time></trkpt><trkpt lat="41.8040346" lon="12.6792604"><ele>339.8571428571429</ele><time>2026-05-03T06:58:53.449Z</time></trkpt><trkpt lat="41.8039745" lon="12.6793272"><ele>341.1428571428571</ele><time>2026-05-03T06:58:56.472Z</time></trkpt><trkpt lat="41.8039412" lon="12.6794061"><ele>342.42857142857144</ele><time>2026-05-03T06:58:59.452Z</time></trkpt><trkpt lat="41.8038791" lon="12.6794552"><ele>343.7142857142857</ele><time>2026-05-03T06:59:03.507Z</time></trkpt><trkpt lat="41.8038286" lon="12.6795248"><ele>345.0</ele><time>2026-05-03T06:59:07.499Z</time></trkpt><trkpt lat="41.8038683" lon="12.6796093"><ele>345.8571428571429</ele><time>2026-05-03T06:59:11.881Z</time></trkpt><trkpt lat="41.8039233" lon="12.6796874"><ele>346.7142857142857</ele><time>2026-05-03T06:59:16.18Z</time></trkpt><trkpt lat="41.8039628" lon="12.6797731"><ele>347.57142857142856</ele><time>2026-05-03T06:59:19.468Z</time></trkpt><trkpt lat="41.8039964" lon="12.6798661"><ele>348.42857142857144</ele><time>2026-05-03T06:59:22.519Z</time></trkpt><trkpt lat="41.8040325" lon="12.6799401"><ele>349.2857142857143</ele><time>2026-05-03T06:59:26.558Z</time></trkpt><trkpt lat="41.8040896" lon="12.6800173"><ele>350.14285714285717</ele><time>2026-05-03T06:59:30.491Z</time></trkpt><trkpt lat="41.8041424" lon="12.6800717"><ele>351.0</ele><time>2026-05-03T06:59:33.468Z</time></trkpt><trkpt lat="41.8042046" lon="12.6801202"><ele>351.00000000000006</ele><time>2026-05-03T06:59:36.408Z</time></trkpt><trkpt lat="41.8042778" lon="12.6801546"><ele>351.0</ele><time>2026-05-03T06:59:39.528Z</time></trkpt><trkpt lat="41.8043489" lon="12.6801613"><ele>351.0</ele><time>2026-05-03T06:59:42.504Z</time></trkpt><trkpt lat="41.8044298" lon="12.6801646"><ele>351.0</ele><time>2026-05-03T06:59:45.468Z</time></trkpt><trkpt lat="41.804494" lon="12.6801742"><ele>351.0</ele><time>2026-05-03T06:59:47.502Z</time></trkpt><trkpt lat="41.8045568" lon="12.6801675"><ele>351.00000000000006</ele><time>2026-05-03T06:59:49.521Z</time></trkpt><trkpt lat="41.8045988" lon="12.6800899"><ele>351.0</ele><time>2026-05-03T06:59:52.499Z</time></trkpt><trkpt lat="41.80467" lon="12.6800652"><ele>348.8333333333333</ele><time>2026-05-03T06:59:55.475Z</time></trkpt><trkpt lat="41.8046795" lon="12.6799658"><ele>346.6666666666667</ele><time>2026-05-03T06:59:58.57Z</time></trkpt><trkpt lat="41.804647" lon="12.6798582"><ele>344.5</ele><time>2026-05-03T07:00:02.492Z</time></trkpt><trkpt lat="41.8046148" lon="12.6797809"><ele>342.33333333333337</ele><time>2026-05-03T07:00:05.469Z</time></trkpt><trkpt lat="41.8045513" lon="12.6797239"><ele>340.1666666666667</ele><time>2026-05-03T07:00:08.554Z</time></trkpt><trkpt lat="41.8044732" lon="12.6796851"><ele>338.0</ele><time>2026-05-03T07:00:11.429Z</time></trkpt><trkpt lat="41.8043868" lon="12.6796472"><ele>339.1666666666667</ele><time>2026-05-03T07:00:14.505Z</time></trkpt><trkpt lat="41.8043076" lon="12.6795892"><ele>340.33333333333337</ele><time>2026-05-03T07:00:17.571Z</time></trkpt><trkpt lat="41.8042505" lon="12.6795021"><ele>341.5</ele><time>2026-05-03T07:00:20.425Z</time></trkpt><trkpt lat="41.8042054" lon="12.6794324"><ele>342.6666666666667</ele><time>2026-05-03T07:00:22.576Z</time></trkpt><trkpt lat="41.804159" lon="12.6793409"><ele>343.8333333333333</ele><time>2026-05-03T07:00:25.488Z</time></trkpt><trkpt lat="41.8041218" lon="12.6792436"><ele>345.0</ele><time>2026-05-03T07:00:28.538Z</time></trkpt><trkpt lat="41.8041001" lon="12.6791412"><ele>345.0</ele><time>2026-05-03T07:00:31.515Z</time></trkpt><trkpt lat="41.8040805" lon="12.6790297"><ele>345.0</ele><time>2026-05-03T07:00:34.516Z</time></trkpt><trkpt lat="41.8040439" lon="12.678935"><ele>345.0</ele><time>2026-05-03T07:00:37.469Z</time></trkpt><trkpt lat="41.8039658" lon="12.6788436"><ele>345.0</ele><time>2026-05-03T07:00:41.028Z</time></trkpt><trkpt lat="41.8039009" lon="12.6787701"><ele>345.0</ele><time>2026-05-03T07:00:44.486Z</time></trkpt><trkpt lat="41.8038405" lon="12.6786984"><ele>345.0</ele><time>2026-05-03T07:00:47.566Z</time></trkpt><trkpt lat="41.8037741" lon="12.6786584"><ele>344.14285714285717</ele><time>2026-05-03T07:00:50.444Z</time></trkpt><trkpt lat="41.8037309" lon="12.6785943"><ele>343.2857142857143</ele><time>2026-05-03T07:00:53.368Z</time></trkpt><trkpt lat="41.8037559" lon="12.6785095"><ele>342.42857142857144</ele><time>2026-05-03T07:00:56.571Z</time></trkpt><trkpt lat="41.803806" lon="12.6784228"><ele>341.57142857142856</ele><time>2026-05-03T07:00:59.865Z</time></trkpt><trkpt lat="41.8038788" lon="12.6783562"><ele>340.7142857142857</ele><time>2026-05-03T07:01:03.088Z</time></trkpt><trkpt lat="41.8039461" lon="12.6783545"><ele>339.85714285714283</ele><time>2026-05-03T07:01:06.493Z</time></trkpt><trkpt lat="41.8040101" lon="12.6783836"><ele>339.0</ele><time>2026-05-03T07:01:09.469Z</time></trkpt><trkpt lat="41.8040679" lon="12.678476"><ele>339.0</ele><time>2026-05-03T07:01:12.452Z</time></trkpt><trkpt lat="41.804112" lon="12.6785364"><ele>339.0</ele><time>2026-05-03T07:01:14.667Z</time></trkpt><trkpt lat="41.8041865" lon="12.678608"><ele>339.0</ele><time>2026-05-03T07:01:17.945Z</time></trkpt><trkpt lat="41.8042575" lon="12.67867"><ele>339.0</ele><time>2026-05-03T07:01:21.2Z</time></trkpt><trkpt lat="41.8043152" lon="12.6787279"><ele>339.0</ele><time>2026-05-03T07:01:25.534Z</time></trkpt><trkpt lat="41.8043649" lon="12.6788255"><ele>339.0</ele><time>2026-05-03T07:01:30.173Z</time></trkpt><trkpt lat="41.8043862" lon="12.6789248"><ele>338.5</ele><time>2026-05-03T07:01:33.484Z</time></trkpt><trkpt lat="41.8044079" lon="12.6790192"><ele>338.0</ele><time>2026-05-03T07:01:36.472Z</time></trkpt><trkpt lat="41.804424" lon="12.6791113"><ele>337.5</ele><time>2026-05-03T07:01:39.582Z</time></trkpt><trkpt lat="41.8044588" lon="12.6791994"><ele>337.0</ele><time>2026-05-03T07:01:42.468Z</time></trkpt><trkpt lat="41.8045254" lon="12.6792565"><ele>336.5</ele><time>2026-05-03T07:01:44.613Z</time></trkpt><trkpt lat="41.8045866" lon="12.6793231"><ele>336.0</ele><time>2026-05-03T07:01:46.79Z</time></trkpt><trkpt lat="41.8046383" lon="12.6793982"><ele>336.2857142857143</ele><time>2026-05-03T07:01:48.918Z</time></trkpt><trkpt lat="41.8046806" lon="12.6794828"><ele>336.57142857142856</ele><time>2026-05-03T07:01:51.431Z</time></trkpt><trkpt lat="41.8047222" lon="12.6795529"><ele>336.8571428571429</ele><time>2026-05-03T07:01:54.546Z</time></trkpt><trkpt lat="41.8047762" lon="12.679605"><ele>337.1428571428571</ele><time>2026-05-03T07:01:57.58Z</time></trkpt><trkpt lat="41.8048232" lon="12.6796652"><ele>337.42857142857144</ele><time>2026-05-03T07:02:00.871Z</time></trkpt><trkpt lat="41.8048848" lon="12.6797055"><ele>337.7142857142857</ele><time>2026-05-03T07:02:04.127Z</time></trkpt><trkpt lat="41.8049318" lon="12.6797775"><ele>338.0</ele><time>2026-05-03T07:02:07.387Z</time></trkpt><trkpt lat="41.8049972" lon="12.6797363"><ele>338.0</ele><time>2026-05-03T07:02:10.357Z</time></trkpt><trkpt lat="41.8050201" lon="12.6796484"><ele>338.0</ele><time>2026-05-03T07:02:13.469Z</time></trkpt><trkpt lat="41.8050498" lon="12.6795623"><ele>338.0</ele><time>2026-05-03T07:02:16.527Z</time></trkpt><trkpt lat="41.8050853" lon="12.679437"><ele>338.0</ele><time>2026-05-03T07:02:20.07Z</time></trkpt><trkpt lat="41.8050857" lon="12.6793514"><ele>338.0</ele><time>2026-05-03T07:02:22.194Z</time></trkpt><trkpt lat="41.8050595" lon="12.6792493"><ele>338.0</ele><time>2026-05-03T07:02:25.451Z</time></trkpt><trkpt lat="41.8050063" lon="12.6791771"><ele>337.6666666666667</ele><time>2026-05-03T07:02:28.461Z</time></trkpt><trkpt lat="41.804966" lon="12.6791075"><ele>337.33333333333337</ele><time>2026-05-03T07:02:31.54Z</time></trkpt><trkpt lat="41.804914" lon="12.6790188"><ele>337.0</ele><time>2026-05-03T07:02:35.443Z</time></trkpt><trkpt lat="41.8048591" lon="12.6789552"><ele>336.6666666666667</ele><time>2026-05-03T07:02:38.659Z</time></trkpt><trkpt lat="41.8048158" lon="12.6788715"><ele>336.3333333333333</ele><time>2026-05-03T07:02:41.901Z</time></trkpt><trkpt lat="41.8047676" lon="12.6787875"><ele>336.0</ele><time>2026-05-03T07:02:45.148Z</time></trkpt><trkpt lat="41.8047078" lon="12.6787083"><ele>336.0</ele><time>2026-05-03T07:02:48.554Z</time></trkpt><trkpt lat="41.8046591" lon="12.6786397"><ele>336.0</ele><time>2026-05-03T07:02:51.53Z</time></trkpt><trkpt lat="41.8046036" lon="12.6785761"><ele>336.0</ele><time>2026-05-03T07:02:54.547Z</time></trkpt><trkpt lat="41.8045306" lon="12.6785194"><ele>336.0</ele><time>2026-05-03T07:02:57.485Z</time></trkpt><trkpt lat="41.804454" lon="12.6784551"><ele>336.0</ele><time>2026-05-03T07:03:00.558Z</time></trkpt><trkpt lat="41.8044092" lon="12.6783786"><ele>336.0</ele><time>2026-05-03T07:03:03.543Z</time></trkpt><trkpt lat="41.8043457" lon="12.6783305"><ele>336.42857142857144</ele><time>2026-05-03T07:03:06.521Z</time></trkpt><trkpt lat="41.8042769" lon="12.6783131"><ele>336.8571428571429</ele><time>2026-05-03T07:03:09.494Z</time></trkpt><trkpt lat="41.8042475" lon="12.67822"><ele>337.2857142857143</ele><time>2026-05-03T07:03:13.453Z</time></trkpt><trkpt lat="41.8042031" lon="12.6781225"><ele>337.7142857142857</ele><time>2026-05-03T07:03:17.471Z</time></trkpt><trkpt lat="41.8041497" lon="12.6780721"><ele>338.14285714285717</ele><time>2026-05-03T07:03:20.451Z</time></trkpt><trkpt lat="41.8040812" lon="12.6780506"><ele>338.57142857142856</ele><time>2026-05-03T07:03:24.565Z</time></trkpt><trkpt lat="41.8040089" lon="12.6780892"><ele>339.0</ele><time>2026-05-03T07:03:28.564Z</time></trkpt><trkpt lat="41.8039652" lon="12.67816"><ele>339.0</ele><time>2026-05-03T07:03:31.371Z</time></trkpt><trkpt lat="41.8039114" lon="12.6782211"><ele>339.0</ele><time>2026-05-03T07:03:34.482Z</time></trkpt><trkpt lat="41.8038462" lon="12.6782947"><ele>339.0</ele><time>2026-05-03T07:03:37.487Z</time></trkpt><trkpt lat="41.8037865" lon="12.6783575"><ele>339.0</ele><time>2026-05-03T07:03:39.477Z</time></trkpt><trkpt lat="41.8037364" lon="12.6784158"><ele>339.0</ele><time>2026-05-03T07:03:41.389Z</time></trkpt><trkpt lat="41.8036786" lon="12.6784778"><ele>339.0</ele><time>2026-05-03T07:03:43.555Z</time></trkpt><trkpt lat="41.803604" lon="12.6785173"><ele>339.0</ele><time>2026-05-03T07:03:46.494Z</time></trkpt><trkpt lat="41.8035205" lon="12.6784967"><ele>339.0</ele><time>2026-05-03T07:03:50.534Z</time></trkpt><trkpt lat="41.8034326" lon="12.6784506"><ele>339.0</ele><time>2026-05-03T07:03:53.512Z</time></trkpt><trkpt lat="41.8033605" lon="12.6783897"><ele>339.0</ele><time>2026-05-03T07:03:56.489Z</time></trkpt><trkpt lat="41.8032949" lon="12.6783162"><ele>339.0</ele><time>2026-05-03T07:03:59.563Z</time></trkpt><trkpt lat="41.8032589" lon="12.6782288"><ele>339.0</ele><time>2026-05-03T07:04:02.427Z</time></trkpt><trkpt lat="41.8032238" lon="12.6781491"><ele>339.8333333333333</ele><time>2026-05-03T07:04:05.565Z</time></trkpt><trkpt lat="41.8031732" lon="12.6780673"><ele>340.6666666666667</ele><time>2026-05-03T07:04:08.501Z</time></trkpt><trkpt lat="41.8031034" lon="12.6780268"><ele>341.5</ele><time>2026-05-03T07:04:11.478Z</time></trkpt><trkpt lat="41.8030384" lon="12.6780504"><ele>342.33333333333337</ele><time>2026-05-03T07:04:17.538Z</time></trkpt><trkpt lat="41.8030108" lon="12.6781529"><ele>343.1666666666667</ele><time>2026-05-03T07:04:23.491Z</time></trkpt><trkpt lat="41.8030234" lon="12.678257"><ele>344.0</ele><time>2026-05-03T07:04:26.469Z</time></trkpt><trkpt lat="41.8030107" lon="12.6783555"><ele>344.0</ele><time>2026-05-03T07:04:29.464Z</time></trkpt><trkpt lat="41.8030021" lon="12.6784519"><ele>344.0</ele><time>2026-05-03T07:04:32.528Z</time></trkpt><trkpt lat="41.8030293" lon="12.6785314"><ele>344.0</ele><time>2026-05-03T07:04:35.506Z</time></trkpt><trkpt lat="41.8030628" lon="12.6786356"><ele>344.0</ele><time>2026-05-03T07:04:38.481Z</time></trkpt><trkpt lat="41.8030969" lon="12.6787376"><ele>344.0</ele><time>2026-05-03T07:04:41.458Z</time></trkpt><trkpt lat="41.8031301" lon="12.6788448"><ele>344.0</ele><time>2026-05-03T07:04:44.49Z</time></trkpt><trkpt lat="41.8031977" lon="12.6789279"><ele>344.1666666666667</ele><time>2026-05-03T07:04:47.361Z</time></trkpt><trkpt lat="41.8032665" lon="12.679007"><ele>344.33333333333337</ele><time>2026-05-03T07:04:50.568Z</time></trkpt><trkpt lat="41.8033322" lon="12.6790798"><ele>344.5</ele><time>2026-05-03T07:04:53.823Z</time></trkpt><trkpt lat="41.8034234" lon="12.6791416"><ele>344.6666666666667</ele><time>2026-05-03T07:04:57.411Z</time></trkpt><trkpt lat="41.8034762" lon="12.6791914"><ele>344.8333333333333</ele><time>2026-05-03T07:05:00.489Z</time></trkpt><trkpt lat="41.8035335" lon="12.6792663"><ele>345.0</ele><time>2026-05-03T07:05:04.528Z</time></trkpt><trkpt lat="41.8036267" lon="12.679238"><ele>345.0</ele><time>2026-05-03T07:05:07.503Z</time></trkpt><trkpt lat="41.8037061" lon="12.6792297"><ele>345.0</ele><time>2026-05-03T07:05:10.482Z</time></trkpt><trkpt lat="41.8037843" lon="12.6791817"><ele>345.0</ele><time>2026-05-03T07:05:13.558Z</time></trkpt><trkpt lat="41.8038556" lon="12.6791021"><ele>345.0</ele><time>2026-05-03T07:05:16.438Z</time></trkpt><trkpt lat="41.8039067" lon="12.6790495"><ele>345.0</ele><time>2026-05-03T07:05:18.544Z</time></trkpt><trkpt lat="41.8039758" lon="12.6789718"><ele>345.0</ele><time>2026-05-03T07:05:21.411Z</time></trkpt><trkpt lat="41.8040263" lon="12.6789162"><ele>345.0</ele><time>2026-05-03T07:05:23.542Z</time></trkpt><trkpt lat="41.8040806" lon="12.6788479"><ele>345.0</ele><time>2026-05-03T07:05:26.536Z</time></trkpt><trkpt lat="41.8041233" lon="12.6787757"><ele>345.0</ele><time>2026-05-03T07:05:29.513Z</time></trkpt><trkpt lat="41.8041643" lon="12.6787041"><ele>345.0</ele><time>2026-05-03T07:05:32.501Z</time></trkpt><trkpt lat="41.8042134" lon="12.6786372"><ele>345.0</ele><time>2026-05-03T07:05:35.467Z</time></trkpt><trkpt lat="41.804273" lon="12.6785589"><ele>345.0</ele><time>2026-05-03T07:05:38.568Z</time></trkpt><trkpt lat="41.8043229" lon="12.6784933"><ele>345.0</ele><time>2026-05-03T07:05:40.463Z</time></trkpt><trkpt lat="41.8043773" lon="12.6784242"><ele>343.2</ele><time>2026-05-03T07:05:42.548Z</time></trkpt><trkpt lat="41.8044594" lon="12.6784161"><ele>341.4</ele><time>2026-05-03T07:05:45.522Z</time></trkpt><trkpt lat="41.8045269" lon="12.6784261"><ele>339.6</ele><time>2026-05-03T07:05:48.392Z</time></trkpt><trkpt lat="41.8045969" lon="12.6784777"><ele>337.8</ele><time>2026-05-03T07:05:52.476Z</time></trkpt><trkpt lat="41.8046551" lon="12.6785616"><ele>336.0</ele><time>2026-05-03T07:05:56.36Z</time></trkpt><trkpt lat="41.8045546" lon="12.6787168"><ele>336.0</ele><time>2026-05-03T07:06:04.49Z</time></trkpt><trkpt lat="41.8045237" lon="12.6788307"><ele>336.0</ele><time>2026-05-03T07:06:06.528Z</time></trkpt><trkpt lat="41.8045452" lon="12.6789236"><ele>336.0</ele><time>2026-05-03T07:06:10.472Z</time></trkpt><trkpt lat="41.8044473" lon="12.679028"><ele>336.0</ele><time>2026-05-03T07:06:13.378Z</time></trkpt><trkpt lat="41.8043848" lon="12.6790463"><ele>336.0</ele><time>2026-05-03T07:06:14.508Z</time></trkpt><trkpt lat="41.8043229" lon="12.6790842"><ele>336.0</ele><time>2026-05-03T07:06:16.504Z</time></trkpt><trkpt lat="41.8042562" lon="12.6791409"><ele>337.5</ele><time>2026-05-03T07:06:19.48Z</time></trkpt><trkpt lat="41.8041902" lon="12.6791866"><ele>339.0</ele><time>2026-05-03T07:06:22.49Z</time></trkpt><trkpt lat="41.8041094" lon="12.6791976"><ele>340.5</ele><time>2026-05-03T07:06:25.54Z</time></trkpt><trkpt lat="41.8040534" lon="12.679265"><ele>342.0</ele><time>2026-05-03T07:06:28.516Z</time></trkpt><trkpt lat="41.8040081" lon="12.6793695"><ele>343.5</ele><time>2026-05-03T07:06:31.49Z</time></trkpt><trkpt lat="41.8039743" lon="12.6794476"><ele>345.0</ele><time>2026-05-03T07:06:33.514Z</time></trkpt><trkpt lat="41.8039242" lon="12.6795473"><ele>345.8571428571429</ele><time>2026-05-03T07:06:36.49Z</time></trkpt><trkpt lat="41.8039076" lon="12.6796365"><ele>346.7142857142857</ele><time>2026-05-03T07:06:39.468Z</time></trkpt><trkpt lat="41.8038878" lon="12.6797351"><ele>347.57142857142856</ele><time>2026-05-03T07:06:43.372Z</time></trkpt><trkpt lat="41.8038996" lon="12.6798218"><ele>348.42857142857144</ele><time>2026-05-03T07:06:46.543Z</time></trkpt><trkpt lat="41.8039324" lon="12.6799003"><ele>349.2857142857143</ele><time>2026-05-03T07:06:49.428Z</time></trkpt><trkpt lat="41.8039843" lon="12.6799818"><ele>350.14285714285717</ele><time>2026-05-03T07:06:52.543Z</time></trkpt><trkpt lat="41.8040458" lon="12.6800599"><ele>351.0</ele><time>2026-05-03T07:06:55.473Z</time></trkpt><trkpt lat="41.8041039" lon="12.6801361"><ele>351.0</ele><time>2026-05-03T07:06:58.498Z</time></trkpt><trkpt lat="41.8041579" lon="12.6801849"><ele>351.0</ele><time>2026-05-03T07:07:00.469Z</time></trkpt><trkpt lat="41.8042392" lon="12.6802313"><ele>351.0</ele><time>2026-05-03T07:07:03.494Z</time></trkpt><trkpt lat="41.8043159" lon="12.6802928"><ele>351.0</ele><time>2026-05-03T07:07:06.471Z</time></trkpt><trkpt lat="41.8043897" lon="12.6803497"><ele>351.0</ele><time>2026-05-03T07:07:09.555Z</time></trkpt><trkpt lat="41.8044626" lon="12.6803641"><ele>351.0</ele><time>2026-05-03T07:07:12.492Z</time></trkpt><trkpt lat="41.8045421" lon="12.6803707"><ele>348.8333333333333</ele><time>2026-05-03T07:07:16.422Z</time></trkpt><trkpt lat="41.8045783" lon="12.680261"><ele>346.6666666666667</ele><time>2026-05-03T07:07:19.452Z</time></trkpt><trkpt lat="41.8045554" lon="12.680171"><ele>344.5</ele><time>2026-05-03T07:07:22.524Z</time></trkpt><trkpt lat="41.8045457" lon="12.6800859"><ele>342.33333333333337</ele><time>2026-05-03T07:07:24.452Z</time></trkpt><trkpt lat="41.804537" lon="12.6799582"><ele>340.1666666666667</ele><time>2026-05-03T07:07:27.503Z</time></trkpt><trkpt lat="41.8045452" lon="12.6798543"><ele>338.0</ele><time>2026-05-03T07:07:29.541Z</time></trkpt><trkpt lat="41.8045319" lon="12.6797505"><ele>338.0</ele><time>2026-05-03T07:07:31.454Z</time></trkpt><trkpt lat="41.8045121" lon="12.6796587"><ele>338.0</ele><time>2026-05-03T07:07:33.426Z</time></trkpt><trkpt lat="41.8044919" lon="12.679569"><ele>338.0</ele><time>2026-05-03T07:07:36.574Z</time></trkpt><trkpt lat="41.8044837" lon="12.6794604"><ele>338.0</ele><time>2026-05-03T07:07:39.397Z</time></trkpt><trkpt lat="41.8045626" lon="12.6795556"><ele>338.0</ele><time>2026-05-03T07:07:42.512Z</time></trkpt><trkpt lat="41.8045396" lon="12.6794615"><ele>338.0</ele><time>2026-05-03T07:07:44.369Z</time></trkpt><trkpt lat="41.8044851" lon="12.6793638"><ele>337.6666666666667</ele><time>2026-05-03T07:07:46.495Z</time></trkpt><trkpt lat="41.804429" lon="12.6792989"><ele>337.33333333333337</ele><time>2026-05-03T07:07:48.555Z</time></trkpt><trkpt lat="41.8043549" lon="12.6792423"><ele>337.0</ele><time>2026-05-03T07:07:50.697Z</time></trkpt><trkpt lat="41.8042853" lon="12.6792013"><ele>336.6666666666667</ele><time>2026-05-03T07:07:52.861Z</time></trkpt><trkpt lat="41.8042042" lon="12.67916"><ele>336.3333333333333</ele><time>2026-05-03T07:07:55.8Z</time></trkpt><trkpt lat="41.8041399" lon="12.6791356"><ele>336.0</ele><time>2026-05-03T07:07:58.049Z</time></trkpt><trkpt lat="41.8040695" lon="12.6791026"><ele>337.2857142857143</ele><time>2026-05-03T07:08:01.542Z</time></trkpt><trkpt lat="41.8039992" lon="12.6790365"><ele>338.57142857142856</ele><time>2026-05-03T07:08:04.519Z</time></trkpt><trkpt lat="41.8039505" lon="12.6789793"><ele>339.8571428571429</ele><time>2026-05-03T07:08:06.528Z</time></trkpt><trkpt lat="41.8038935" lon="12.6789112"><ele>341.1428571428571</ele><time>2026-05-03T07:08:08.559Z</time></trkpt><trkpt lat="41.8038283" lon="12.6788958"><ele>342.42857142857144</ele><time>2026-05-03T07:08:10.449Z</time></trkpt><trkpt lat="41.8037608" lon="12.678911"><ele>343.7142857142857</ele><time>2026-05-03T07:08:13.451Z</time></trkpt><trkpt lat="41.8036867" lon="12.6789033"><ele>345.0</ele><time>2026-05-03T07:08:16.52Z</time></trkpt><trkpt lat="41.8036698" lon="12.6787901"><ele>345.0</ele><time>2026-05-03T07:08:19.508Z</time></trkpt><trkpt lat="41.8037142" lon="12.6787198"><ele>345.0</ele><time>2026-05-03T07:08:21.424Z</time></trkpt><trkpt lat="41.8037715" lon="12.6786734"><ele>345.0</ele><time>2026-05-03T07:08:23.565Z</time></trkpt><trkpt lat="41.8038177" lon="12.6785989"><ele>345.0</ele><time>2026-05-03T07:08:26.525Z</time></trkpt><trkpt lat="41.8038644" lon="12.6785216"><ele>345.0</ele><time>2026-05-03T07:08:29.556Z</time></trkpt><trkpt lat="41.80394" lon="12.6785668"><ele>345.0</ele><time>2026-05-03T07:08:32.446Z</time></trkpt><trkpt lat="41.8039957" lon="12.6786192"><ele>345.0</ele><time>2026-05-03T07:08:34.499Z</time></trkpt><trkpt lat="41.8040606" lon="12.6786608"><ele>345.0</ele><time>2026-05-03T07:08:37.429Z</time></trkpt><trkpt lat="41.8041252" lon="12.6787111"><ele>345.0</ele><time>2026-05-03T07:08:41.728Z</time></trkpt><trkpt lat="41.8041795" lon="12.6787666"><ele>345.0</ele><time>2026-05-03T07:08:46.007Z</time></trkpt><trkpt lat="41.8042302" lon="12.6788264"><ele>345.0</ele><time>2026-05-03T07:08:50.235Z</time></trkpt><trkpt lat="41.8042822" lon="12.6788847"><ele>345.0</ele><time>2026-05-03T07:08:56.547Z</time></trkpt><trkpt lat="41.8043559" lon="12.6789344"><ele>345.0</ele><time>2026-05-03T07:08:58.525Z</time></trkpt><trkpt lat="41.8044276" lon="12.6790097"><ele>343.8333333333333</ele><time>2026-05-03T07:09:01.558Z</time></trkpt><trkpt lat="41.8044921" lon="12.6790815"><ele>342.6666666666667</ele><time>2026-05-03T07:09:04.423Z</time></trkpt><trkpt lat="41.804547" lon="12.67913"><ele>341.5</ele><time>2026-05-03T07:09:06.525Z</time></trkpt><trkpt lat="41.8045924" lon="12.6792218"><ele>340.33333333333337</ele><time>2026-05-03T07:09:09.475Z</time></trkpt><trkpt lat="41.8046106" lon="12.6793131"><ele>339.1666666666667</ele><time>2026-05-03T07:09:12.558Z</time></trkpt><trkpt lat="41.8046452" lon="12.6794055"><ele>338.0</ele><time>2026-05-03T07:09:15.536Z</time></trkpt><trkpt lat="41.804673" lon="12.6795056"><ele>338.0</ele><time>2026-05-03T07:09:18.513Z</time></trkpt><trkpt lat="41.8047182" lon="12.6796013"><ele>338.0</ele><time>2026-05-03T07:09:21.489Z</time></trkpt><trkpt lat="41.8047559" lon="12.6796725"><ele>338.0</ele><time>2026-05-03T07:09:24.465Z</time></trkpt><trkpt lat="41.8048002" lon="12.6797456"><ele>338.0</ele><time>2026-05-03T07:09:27.569Z</time></trkpt><trkpt lat="41.8048284" lon="12.6798406"><ele>338.0</ele><time>2026-05-03T07:09:31.482Z</time></trkpt><trkpt lat="41.804902" lon="12.6797876"><ele>338.0</ele><time>2026-05-03T07:09:36.058Z</time></trkpt><trkpt lat="41.8049359" lon="12.6797031"><ele>338.0</ele><time>2026-05-03T07:09:38.482Z</time></trkpt><trkpt lat="41.8049887" lon="12.6796177"><ele>338.0</ele><time>2026-05-03T07:09:41.475Z</time></trkpt><trkpt lat="41.8050322" lon="12.6795398"><ele>338.0</ele><time>2026-05-03T07:09:44.406Z</time></trkpt><trkpt lat="41.8050124" lon="12.6794558"><ele>338.0</ele><time>2026-05-03T07:09:46.446Z</time></trkpt><trkpt lat="41.8049803" lon="12.6793728"><ele>338.0</ele><time>2026-05-03T07:09:48.548Z</time></trkpt><trkpt lat="41.8049457" lon="12.67929"><ele>338.0</ele><time>2026-05-03T07:09:50.513Z</time></trkpt><trkpt lat="41.8049028" lon="12.6791862"><ele>337.6666666666667</ele><time>2026-05-03T07:09:53.422Z</time></trkpt><trkpt lat="41.8048797" lon="12.6790858"><ele>337.33333333333337</ele><time>2026-05-03T07:09:56.467Z</time></trkpt><trkpt lat="41.8048537" lon="12.6790008"><ele>337.0</ele><time>2026-05-03T07:09:59.411Z</time></trkpt><trkpt lat="41.8048271" lon="12.678905"><ele>336.6666666666667</ele><time>2026-05-03T07:10:02.588Z</time></trkpt><trkpt lat="41.8047896" lon="12.6788106"><ele>336.3333333333333</ele><time>2026-05-03T07:10:05.35Z</time></trkpt><trkpt lat="41.8047576" lon="12.6787284"><ele>336.0</ele><time>2026-05-03T07:10:07.477Z</time></trkpt><trkpt lat="41.8047344" lon="12.6786216"><ele>334.6666666666667</ele><time>2026-05-03T07:10:11.637Z</time></trkpt><trkpt lat="41.8047066" lon="12.6785079"><ele>333.3333333333333</ele><time>2026-05-03T07:10:15.48Z</time></trkpt><trkpt lat="41.8046645" lon="12.6784114"><ele>332.0</ele><time>2026-05-03T07:10:18.473Z</time></trkpt><trkpt lat="41.8046169" lon="12.6783555"><ele>330.66666666666663</ele><time>2026-05-03T07:10:21.407Z</time></trkpt><trkpt lat="41.8045621" lon="12.6782744"><ele>329.3333333333333</ele><time>2026-05-03T07:10:24.532Z</time></trkpt><trkpt lat="41.8045015" lon="12.6782223"><ele>328.0</ele><time>2026-05-03T07:10:27.51Z</time></trkpt><trkpt lat="41.8044153" lon="12.6781973"><ele>327.99999999999994</ele><time>2026-05-03T07:10:31.563Z</time></trkpt><trkpt lat="41.8043684" lon="12.678128"><ele>328.0</ele><time>2026-05-03T07:10:34.527Z</time></trkpt><trkpt lat="41.8043212" lon="12.6780681"><ele>328.0</ele><time>2026-05-03T07:10:37.534Z</time></trkpt><trkpt lat="41.8042479" lon="12.6780448"><ele>328.0</ele><time>2026-05-03T07:10:41.438Z</time></trkpt><trkpt lat="41.8041826" lon="12.678087"><ele>328.0</ele><time>2026-05-03T07:10:44.549Z</time></trkpt><trkpt lat="41.8041302" lon="12.6781452"><ele>327.99999999999994</ele><time>2026-05-03T07:10:46.539Z</time></trkpt><trkpt lat="41.8040565" lon="12.6781786"><ele>328.0</ele><time>2026-05-03T07:10:48.485Z</time></trkpt><trkpt lat="41.8039972" lon="12.6782185"><ele>329.57142857142856</ele><time>2026-05-03T07:10:50.474Z</time></trkpt><trkpt lat="41.8039332" lon="12.6782687"><ele>331.1428571428571</ele><time>2026-05-03T07:10:52.493Z</time></trkpt><trkpt lat="41.803868" lon="12.6783223"><ele>332.71428571428567</ele><time>2026-05-03T07:10:54.414Z</time></trkpt><trkpt lat="41.8038161" lon="12.6783891"><ele>334.2857142857143</ele><time>2026-05-03T07:10:56.528Z</time></trkpt><trkpt lat="41.8037727" lon="12.6784548"><ele>335.8571428571429</ele><time>2026-05-03T07:10:58.659Z</time></trkpt><trkpt lat="41.803721" lon="12.6785311"><ele>337.4285714285714</ele><time>2026-05-03T07:11:01.46Z</time></trkpt><trkpt lat="41.8036713" lon="12.6786095"><ele>339.0</ele><time>2026-05-03T07:11:04.507Z</time></trkpt><trkpt lat="41.8036073" lon="12.6786089"><ele>339.0</ele><time>2026-05-03T07:11:07.447Z</time></trkpt><trkpt lat="41.80355" lon="12.6785403"><ele>339.0</ele><time>2026-05-03T07:11:09.577Z</time></trkpt><trkpt lat="41.8035227" lon="12.6784543"><ele>339.0</ele><time>2026-05-03T07:11:11.524Z</time></trkpt><trkpt lat="41.8034685" lon="12.6784015"><ele>339.0</ele><time>2026-05-03T07:11:14.489Z</time></trkpt><trkpt lat="41.8034113" lon="12.6783223"><ele>339.0</ele><time>2026-05-03T07:11:18.54Z</time></trkpt><trkpt lat="41.8033565" lon="12.6782495"><ele>339.0</ele><time>2026-05-03T07:11:21.517Z</time></trkpt><trkpt lat="41.8032881" lon="12.6781884"><ele>340.0</ele><time>2026-05-03T07:11:26.514Z</time></trkpt><trkpt lat="41.8031799" lon="12.6780462"><ele>341.0</ele><time>2026-05-03T07:11:37.464Z</time></trkpt><trkpt lat="41.8031234" lon="12.6779695"><ele>342.0</ele><time>2026-05-03T07:11:40.429Z</time></trkpt><trkpt lat="41.8030195" lon="12.6779681"><ele>343.0</ele><time>2026-05-03T07:11:43.524Z</time></trkpt><trkpt lat="41.8029759" lon="12.6780321"><ele>344.0</ele><time>2026-05-03T07:11:45.543Z</time></trkpt><trkpt lat="41.8029802" lon="12.6781286"><ele>344.0</ele><time>2026-05-03T07:11:49.477Z</time></trkpt><trkpt lat="41.8030238" lon="12.6782729"><ele>344.0</ele><time>2026-05-03T07:11:55.539Z</time></trkpt><trkpt lat="41.8030396" lon="12.6783696"><ele>344.0</ele><time>2026-05-03T07:11:59.409Z</time></trkpt><trkpt lat="41.803045" lon="12.6784931"><ele>344.0</ele><time>2026-05-03T07:12:01.507Z</time></trkpt><trkpt lat="41.8030666" lon="12.6785747"><ele>344.0</ele><time>2026-05-03T07:12:03.511Z</time></trkpt><trkpt lat="41.8032031" lon="12.6787592"><ele>344.1666666666667</ele><time>2026-05-03T07:12:06.397Z</time></trkpt><trkpt lat="41.8032632" lon="12.6788115"><ele>344.33333333333337</ele><time>2026-05-03T07:12:07.446Z</time></trkpt><trkpt lat="41.8033438" lon="12.678868"><ele>344.5</ele><time>2026-05-03T07:12:09.563Z</time></trkpt><trkpt lat="41.8034235" lon="12.6789295"><ele>344.6666666666667</ele><time>2026-05-03T07:12:12.547Z</time></trkpt><trkpt lat="41.8034867" lon="12.6790122"><ele>344.8333333333333</ele><time>2026-05-03T07:12:15.473Z</time></trkpt><trkpt lat="41.803529" lon="12.6790942"><ele>345.0</ele><time>2026-05-03T07:12:18.502Z</time></trkpt><trkpt lat="41.8035895" lon="12.6791805"><ele>345.0</ele><time>2026-05-03T07:12:21.478Z</time></trkpt><trkpt lat="41.8036806" lon="12.6792182"><ele>345.0</ele><time>2026-05-03T07:12:24.967Z</time></trkpt><trkpt lat="41.8037612" lon="12.6792295"><ele>345.0</ele><time>2026-05-03T07:12:28.108Z</time></trkpt><trkpt lat="41.8038383" lon="12.6792386"><ele>345.0</ele><time>2026-05-03T07:12:31.288Z</time></trkpt><trkpt lat="41.8039159" lon="12.6792338"><ele>345.0</ele><time>2026-05-03T07:12:34.427Z</time></trkpt><trkpt lat="41.8039788" lon="12.67919"><ele>345.0</ele><time>2026-05-03T07:12:37.531Z</time></trkpt><trkpt lat="41.8040135" lon="12.6791004"><ele>345.0</ele><time>2026-05-03T07:12:39.451Z</time></trkpt><trkpt lat="41.8040573" lon="12.6790238"><ele>345.0</ele><time>2026-05-03T07:12:41.437Z</time></trkpt><trkpt lat="41.8040867" lon="12.6789294"><ele>345.0</ele><time>2026-05-03T07:12:43.57Z</time></trkpt><trkpt lat="41.8041188" lon="12.6788146"><ele>345.0</ele><time>2026-05-03T07:12:46.462Z</time></trkpt><trkpt lat="41.8041355" lon="12.6786974"><ele>345.0</ele><time>2026-05-03T07:12:49.451Z</time></trkpt><trkpt lat="41.804166" lon="12.678613"><ele>345.0</ele><time>2026-05-03T07:12:51.459Z</time></trkpt><trkpt lat="41.8042083" lon="12.6785353"><ele>344.0</ele><time>2026-05-03T07:12:53.478Z</time></trkpt><trkpt lat="41.8042631" lon="12.6784811"><ele>343.0</ele><time>2026-05-03T07:12:55.53Z</time></trkpt><trkpt lat="41.8043335" lon="12.678417"><ele>342.0</ele><time>2026-05-03T07:12:58.476Z</time></trkpt><trkpt lat="41.8044084" lon="12.678365"><ele>341.0</ele><time>2026-05-03T07:13:01.452Z</time></trkpt><trkpt lat="41.8044769" lon="12.6783703"><ele>340.0</ele><time>2026-05-03T07:13:04.437Z</time></trkpt><trkpt lat="41.8045497" lon="12.678389"><ele>339.0</ele><time>2026-05-03T07:13:08.469Z</time></trkpt><trkpt lat="41.8046198" lon="12.6784041"><ele>338.5</ele><time>2026-05-03T07:13:11.508Z</time></trkpt><trkpt lat="41.8046472" lon="12.6784961"><ele>338.0</ele><time>2026-05-03T07:13:14.529Z</time></trkpt><trkpt lat="41.8046212" lon="12.6786078"><ele>337.5</ele><time>2026-05-03T07:13:17.506Z</time></trkpt><trkpt lat="41.8046228" lon="12.6787028"><ele>337.0</ele><time>2026-05-03T07:13:21.496Z</time></trkpt><trkpt lat="41.8046316" lon="12.6788021"><ele>336.5</ele><time>2026-05-03T07:13:24.522Z</time></trkpt><trkpt lat="41.8046295" lon="12.678928"><ele>336.0</ele><time>2026-05-03T07:13:27.484Z</time></trkpt><trkpt lat="41.804628" lon="12.6790756"><ele>336.0</ele><time>2026-05-03T07:13:30.475Z</time></trkpt><trkpt lat="41.8046418" lon="12.6791714"><ele>336.0</ele><time>2026-05-03T07:13:32.448Z</time></trkpt><trkpt lat="41.8046071" lon="12.6792853"><ele>336.0</ele><time>2026-05-03T07:13:35.473Z</time></trkpt><trkpt lat="41.8045744" lon="12.6793843"><ele>336.0</ele><time>2026-05-03T07:13:38.441Z</time></trkpt><trkpt lat="41.8044186" lon="12.6793348"><ele>336.0</ele><time>2026-05-03T07:13:39.446Z</time></trkpt><trkpt lat="41.8043112" lon="12.6793612"><ele>337.8</ele><time>2026-05-03T07:13:41.451Z</time></trkpt><trkpt lat="41.804224" lon="12.6793595"><ele>339.6</ele><time>2026-05-03T07:13:43.452Z</time></trkpt><trkpt lat="41.8041381" lon="12.6793763"><ele>341.4</ele><time>2026-05-03T07:13:46.554Z</time></trkpt><trkpt lat="41.8040727" lon="12.6794169"><ele>343.2</ele><time>2026-05-03T07:13:49.371Z</time></trkpt><trkpt lat="41.8039903" lon="12.6795738"><ele>345.0</ele><time>2026-05-03T07:13:56.523Z</time></trkpt><trkpt lat="41.8039804" lon="12.6796666"><ele>346.0</ele><time>2026-05-03T07:13:58.452Z</time></trkpt><trkpt lat="41.8039596" lon="12.6797623"><ele>347.0</ele><time>2026-05-03T07:14:01.52Z</time></trkpt><trkpt lat="41.8040577" lon="12.6797825"><ele>348.0</ele><time>2026-05-03T07:14:05.453Z</time></trkpt><trkpt lat="41.8041454" lon="12.6798214"><ele>349.0</ele><time>2026-05-03T07:14:07.474Z</time></trkpt><trkpt lat="41.8041544" lon="12.6799057"><ele>350.0</ele><time>2026-05-03T07:14:09.471Z</time></trkpt><trkpt lat="41.8041734" lon="12.6799949"><ele>351.0</ele><time>2026-05-03T07:14:11.549Z</time></trkpt><trkpt lat="41.8042183" lon="12.6800907"><ele>351.00000000000006</ele><time>2026-05-03T07:14:14.371Z</time></trkpt><trkpt lat="41.8042704" lon="12.6801536"><ele>351.0</ele><time>2026-05-03T07:14:17.467Z</time></trkpt><trkpt lat="41.804324" lon="12.6802049"><ele>351.0</ele><time>2026-05-03T07:14:20.452Z</time></trkpt><trkpt lat="41.8043935" lon="12.6802327"><ele>351.0</ele><time>2026-05-03T07:14:23.45Z</time></trkpt><trkpt lat="41.8044742" lon="12.6802402"><ele>351.0</ele><time>2026-05-03T07:14:26.503Z</time></trkpt><trkpt lat="41.8045442" lon="12.6802474"><ele>351.00000000000006</ele><time>2026-05-03T07:14:29.481Z</time></trkpt><trkpt lat="41.8046296" lon="12.680255"><ele>351.0</ele><time>2026-05-03T07:14:32.531Z</time></trkpt><trkpt lat="41.8047088" lon="12.6802515"><ele>348.8333333333333</ele><time>2026-05-03T07:14:35.508Z</time></trkpt><trkpt lat="41.8046777" lon="12.6801537"><ele>346.6666666666667</ele><time>2026-05-03T07:14:39.78Z</time></trkpt><trkpt lat="41.8046232" lon="12.6800891"><ele>344.5</ele><time>2026-05-03T07:14:41.941Z</time></trkpt><trkpt lat="41.8045597" lon="12.6800106"><ele>342.33333333333337</ele><time>2026-05-03T07:14:44.47Z</time></trkpt><trkpt lat="41.8044943" lon="12.6799127"><ele>340.1666666666667</ele><time>2026-05-03T07:14:47.483Z</time></trkpt><trkpt lat="41.8044581" lon="12.6798381"><ele>338.0</ele><time>2026-05-03T07:14:49.467Z</time></trkpt><trkpt lat="41.8044148" lon="12.679741"><ele>338.0</ele><time>2026-05-03T07:14:52.55Z</time></trkpt><trkpt lat="41.8043644" lon="12.6796358"><ele>338.0</ele><time>2026-05-03T07:14:55.514Z</time></trkpt><trkpt lat="41.8043202" lon="12.6795331"><ele>338.0</ele><time>2026-05-03T07:14:58.505Z</time></trkpt><trkpt lat="41.8042743" lon="12.6794495"><ele>338.0</ele><time>2026-05-03T07:15:01.477Z</time></trkpt><trkpt lat="41.804234" lon="12.6793791"><ele>338.0</ele><time>2026-05-03T07:15:04.458Z</time></trkpt><trkpt lat="41.8041845" lon="12.679312"><ele>338.0</ele><time>2026-05-03T07:15:07.433Z</time></trkpt><trkpt lat="41.8041227" lon="12.6792532"><ele>339.1666666666667</ele><time>2026-05-03T07:15:10.576Z</time></trkpt><trkpt lat="41.8040621" lon="12.6791715"><ele>340.33333333333337</ele><time>2026-05-03T07:15:14.123Z</time></trkpt><trkpt lat="41.8040096" lon="12.6791065"><ele>341.5</ele><time>2026-05-03T07:15:16.558Z</time></trkpt><trkpt lat="41.8039509" lon="12.6790413"><ele>342.6666666666667</ele><time>2026-05-03T07:15:19.411Z</time></trkpt><trkpt lat="41.8038834" lon="12.6789762"><ele>343.8333333333333</ele><time>2026-05-03T07:15:22.566Z</time></trkpt><trkpt lat="41.8038501" lon="12.678889"><ele>345.0</ele><time>2026-05-03T07:15:26.448Z</time></trkpt><trkpt lat="41.8037958" lon="12.6788179"><ele>345.0</ele><time>2026-05-03T07:15:30.505Z</time></trkpt><trkpt lat="41.8037236" lon="12.6787715"><ele>345.0</ele><time>2026-05-03T07:15:33.471Z</time></trkpt><trkpt lat="41.8037255" lon="12.6786783"><ele>345.0</ele><time>2026-05-03T07:15:36.459Z</time></trkpt><trkpt lat="41.8038016" lon="12.6786267"><ele>345.0</ele><time>2026-05-03T07:15:39.483Z</time></trkpt><trkpt lat="41.8038754" lon="12.6785847"><ele>345.0</ele><time>2026-05-03T07:15:42.518Z</time></trkpt><trkpt lat="41.8039294" lon="12.6785285"><ele>345.0</ele><time>2026-05-03T07:15:46.487Z</time></trkpt><trkpt lat="41.8039802" lon="12.6786134"><ele>345.0</ele><time>2026-05-03T07:15:54.531Z</time></trkpt><trkpt lat="41.8039978" lon="12.6787077"><ele>345.0</ele><time>2026-05-03T07:15:57.509Z</time></trkpt><trkpt lat="41.8040097" lon="12.6788131"><ele>345.0</ele><time>2026-05-03T07:16:00.484Z</time></trkpt><trkpt lat="41.8040687" lon="12.6789171"><ele>345.0</ele><time>2026-05-03T07:16:03.449Z</time></trkpt><trkpt lat="41.8040999" lon="12.6790016"><ele>345.0</ele><time>2026-05-03T07:16:05.482Z</time></trkpt><trkpt lat="41.8041317" lon="12.6790892"><ele>345.0</ele><time>2026-05-03T07:16:08.458Z</time></trkpt><trkpt lat="41.8041299" lon="12.6791915"><ele>345.0</ele><time>2026-05-03T07:16:15.475Z</time></trkpt><trkpt lat="41.8041443" lon="12.6792828"><ele>345.0</ele><time>2026-05-03T07:16:17.443Z</time></trkpt><trkpt lat="41.8041806" lon="12.6793761"><ele>345.0</ele><time>2026-05-03T07:16:20.473Z</time></trkpt><trkpt lat="41.8042399" lon="12.6794377"><ele>345.0</ele><time>2026-05-03T07:16:23.392Z</time></trkpt><trkpt lat="41.8042906" lon="12.6795253"><ele>345.0</ele><time>2026-05-03T07:16:26.568Z</time></trkpt><trkpt lat="41.8043703" lon="12.6794813"><ele>345.0</ele><time>2026-05-03T07:16:28.552Z</time></trkpt><trkpt lat="41.8044444" lon="12.6794386"><ele>343.8333333333333</ele><time>2026-05-03T07:16:29.509Z</time></trkpt><trkpt lat="41.8045252" lon="12.6794636"><ele>342.6666666666667</ele><time>2026-05-03T07:16:31.419Z</time></trkpt><trkpt lat="41.8046149" lon="12.6794858"><ele>341.5</ele><time>2026-05-03T07:16:33.521Z</time></trkpt><trkpt lat="41.8046796" lon="12.6795324"><ele>340.33333333333337</ele><time>2026-05-03T07:16:35.462Z</time></trkpt><trkpt lat="41.8047445" lon="12.6796161"><ele>339.1666666666667</ele><time>2026-05-03T07:16:38.465Z</time></trkpt><trkpt lat="41.8047926" lon="12.6796955"><ele>338.0</ele><time>2026-05-03T07:16:41.522Z</time></trkpt><trkpt lat="41.8048486" lon="12.679757"><ele>338.0</ele><time>2026-05-03T07:16:44.498Z</time></trkpt><trkpt lat="41.804912" lon="12.6798076"><ele>338.0</ele><time>2026-05-03T07:16:47.507Z</time></trkpt><trkpt lat="41.804969" lon="12.6797616"><ele>338.0</ele><time>2026-05-03T07:16:51.515Z</time></trkpt><trkpt lat="41.8049658" lon="12.6796547"><ele>338.0</ele><time>2026-05-03T07:16:54.571Z</time></trkpt><trkpt lat="41.8049543" lon="12.6795467"><ele>338.0</ele><time>2026-05-03T07:16:57.378Z</time></trkpt><trkpt lat="41.8049663" lon="12.6794347"><ele>338.0</ele><time>2026-05-03T07:17:00.468Z</time></trkpt><trkpt lat="41.8049691" lon="12.6793223"><ele>337.6666666666667</ele><time>2026-05-03T07:17:03.53Z</time></trkpt><trkpt lat="41.8049843" lon="12.6792165"><ele>337.33333333333337</ele><time>2026-05-03T07:17:06.417Z</time></trkpt><trkpt lat="41.8049971" lon="12.6791037"><ele>337.0</ele><time>2026-05-03T07:17:09.528Z</time></trkpt><trkpt lat="41.8050029" lon="12.6789877"><ele>336.6666666666667</ele><time>2026-05-03T07:17:12.565Z</time></trkpt><trkpt lat="41.8050082" lon="12.6788724"><ele>336.3333333333333</ele><time>2026-05-03T07:17:15.527Z</time></trkpt><trkpt lat="41.80501" lon="12.6787661"><ele>336.0</ele><time>2026-05-03T07:17:18.52Z</time></trkpt><trkpt lat="41.804988" lon="12.6786418"><ele>334.6666666666667</ele><time>2026-05-03T07:17:21.447Z</time></trkpt><trkpt lat="41.8049605" lon="12.6785419"><ele>333.3333333333333</ele><time>2026-05-03T07:17:24.472Z</time></trkpt><trkpt lat="41.8049342" lon="12.6784481"><ele>332.0</ele><time>2026-05-03T07:17:27.47Z</time></trkpt><trkpt lat="41.8049174" lon="12.6783372"><ele>330.66666666666663</ele><time>2026-05-03T07:17:33.102Z</time></trkpt><trkpt lat="41.8048915" lon="12.6782523"><ele>329.3333333333333</ele><time>2026-05-03T07:17:44.461Z</time></trkpt><trkpt lat="41.8048909" lon="12.6781614"><ele>328.0</ele><time>2026-05-03T07:17:47.527Z</time></trkpt><trkpt lat="41.8048147" lon="12.6780571"><ele>328.0</ele><time>2026-05-03T07:17:49.458Z</time></trkpt><trkpt lat="41.8047557" lon="12.6779868"><ele>328.0</ele><time>2026-05-03T07:17:51.371Z</time></trkpt><trkpt lat="41.804697" lon="12.6779174"><ele>328.0</ele><time>2026-05-03T07:17:54.456Z</time></trkpt><trkpt lat="41.8046241" lon="12.677889"><ele>328.0</ele><time>2026-05-03T07:17:58.426Z</time></trkpt><trkpt lat="41.8043936" lon="12.6778459"><ele>329.8333333333333</ele><time>2026-05-03T07:18:00.452Z</time></trkpt><trkpt lat="41.8043074" lon="12.67784"><ele>331.66666666666663</ele><time>2026-05-03T07:18:02.452Z</time></trkpt><trkpt lat="41.8042549" lon="12.6778873"><ele>333.5</ele><time>2026-05-03T07:18:04.451Z</time></trkpt><trkpt lat="41.8042012" lon="12.6779444"><ele>335.3333333333333</ele><time>2026-05-03T07:18:06.471Z</time></trkpt><trkpt lat="41.8041539" lon="12.6780036"><ele>337.1666666666667</ele><time>2026-05-03T07:18:08.491Z</time></trkpt><trkpt lat="41.8040956" lon="12.6780693"><ele>339.0</ele><time>2026-05-03T07:18:11.47Z</time></trkpt><trkpt lat="41.8039387" lon="12.6781689"><ele>339.0</ele><time>2026-05-03T07:18:13.452Z</time></trkpt><trkpt lat="41.8039047" lon="12.6782764"><ele>339.0</ele><time>2026-05-03T07:18:15.451Z</time></trkpt><trkpt lat="41.8038314" lon="12.6783946"><ele>339.0</ele><time>2026-05-03T07:18:17.447Z</time></trkpt></trkseg></trk></gpx>